PWSweather.com
Personal Weather Stations
Station Observations
KTXPLANO60
Highlands Of Russell Park, Plano, TX 75025

Highlands Of Russell ParkPlano, TX 75025

Lat: 33.10431671, Lon: -96.75176239

Elevation: 761

Station Type: Davis Wireless VP2 Plus

http://www.planoweather.com

Latest ConditionsUpdated 4:20:11 PM CDT Thursday, Sep 3, 2015
Currently Today's Max Today's Min Today's Average
Temperature 95.6°F35.3°C 96.0°F35.6°C 73.0°F22.8°C 82.7°F28.2°C
Dew Point 67.5°F19.7°C 72.7°F22.6°C 66.5°F19.2°C 68.9°F20.5°C
Winds 6.7 mph S10.8 kmh S 11.5 mph SSW18.5 kmh SSW - 3.6 mph 5.8 kmh
Wind Gusts 10.0 mph16.1 kmh 16.0 mph25.7 kmh - -
Humidity 40% 84% 39% 65%
Pressure 29.81 in1009.5 mb 29.92 in1013.2 mb 29.81 in1009.5 mb -
Hour Temp Dew Point Humidity Winds Wind Gusts Pressure Precip Precip Rate Daily Precip Total
04:20 PM 95.6°F35.3°C 67.5°F19.7°C 40% 6.7 mph S10.8 kmh S 10.0 mph16.1 kmh 29.81 in1009.5 mb - 0.00 in0.0 mm 0.00 in0.0 mm
04:10 PM 96.0°F35.6°C 67.0°F19.4°C 39% 7.7 mph SE12.4 kmh SE 12.0 mph19.3 kmh 29.81 in1009.5 mb - 0.00 in0.0 mm 0.00 in0.0 mm
04:00 PM 95.0°F35.0°C 67.6°F19.8°C 41% 5.8 mph SSE9.3 kmh SSE 7.0 mph11.3 kmh 29.82 in1009.8 mb - 0.00 in0.0 mm 0.00 in0.0 mm
03:50 PM 96.0°F35.6°C 70.6°F21.4°C 44% 3.4 mph WSW5.5 kmh WSW 11.0 mph17.7 kmh 29.82 in1009.8 mb - 0.00 in0.0 mm 0.00 in0.0 mm
03:40 PM 95.7°F35.4°C 68.2°F20.1°C 41% 7.8 mph S12.6 kmh S 13.0 mph20.9 kmh 29.82 in1009.8 mb - 0.00 in0.0 mm 0.00 in0.0 mm
03:30 PM 95.2°F35.1°C 68.5°F20.3°C 42% 2.1 mph SW3.4 kmh SW 8.0 mph12.9 kmh 29.83 in1010.2 mb - 0.00 in0.0 mm 0.00 in0.0 mm
03:20 PM 95.8°F35.4°C 69.1°F20.6°C 42% 7.2 mph SSE11.6 kmh SSE 10.0 mph16.1 kmh 29.83 in1010.2 mb - 0.00 in0.0 mm 0.00 in0.0 mm
03:10 PM 95.3°F35.2°C 68.6°F20.3°C 42% 4.6 mph SSE7.4 kmh SSE 10.0 mph16.1 kmh 29.83 in1010.2 mb - 0.00 in0.0 mm 0.00 in0.0 mm
03:00 PM 94.5°F34.7°C 67.9°F19.9°C 42% 4.1 mph SSE6.6 kmh SSE 9.0 mph14.5 kmh 29.84 in1010.5 mb - 0.00 in0.0 mm 0.00 in0.0 mm
02:50 PM 94.0°F34.4°C 68.1°F20.1°C 43% 4.6 mph S7.4 kmh S 10.0 mph16.1 kmh 29.84 in1010.5 mb - 0.00 in0.0 mm 0.00 in0.0 mm
02:40 PM 94.5°F34.7°C 71.2°F21.8°C 47% 5.0 mph S8.0 kmh S 13.0 mph20.9 kmh 29.85 in1010.8 mb - 0.00 in0.0 mm 0.00 in0.0 mm
02:30 PM 95.0°F35.0°C 71.6°F22.0°C 47% 4.3 mph SE6.9 kmh SE 10.0 mph16.1 kmh 29.85 in1010.8 mb - 0.00 in0.0 mm 0.00 in0.0 mm
02:20 PM 93.8°F34.3°C 68.6°F20.3°C 44% 7.3 mph SSW11.7 kmh SSW 9.0 mph14.5 kmh 29.86 in1011.2 mb - 0.00 in0.0 mm 0.00 in0.0 mm
02:10 PM 93.0°F33.9°C 68.6°F20.3°C 45% 4.9 mph S7.9 kmh S 12.0 mph19.3 kmh 29.86 in1011.2 mb - 0.00 in0.0 mm 0.00 in0.0 mm
02:00 PM 92.2°F33.4°C 71.4°F21.9°C 51% 4.5 mph SSE7.2 kmh SSE 7.0 mph11.3 kmh 29.87 in1011.5 mb - 0.00 in0.0 mm 0.00 in0.0 mm
01:50 PM 92.8°F33.8°C 69.6°F20.9°C 47% 5.4 mph S8.7 kmh S 11.0 mph17.7 kmh 29.87 in1011.5 mb - 0.00 in0.0 mm 0.00 in0.0 mm
01:40 PM 92.9°F33.8°C 69.1°F20.6°C 46% 5.2 mph S8.4 kmh S 10.0 mph16.1 kmh 29.87 in1011.5 mb - 0.00 in0.0 mm 0.00 in0.0 mm
01:30 PM 92.6°F33.7°C 69.4°F20.8°C 47% 6.5 mph SW10.5 kmh SW 11.0 mph17.7 kmh 29.88 in1011.9 mb - 0.00 in0.0 mm 0.00 in0.0 mm
01:20 PM 92.6°F33.7°C 68.2°F20.1°C 45% 11.5 mph SSW18.5 kmh SSW 16.0 mph25.7 kmh 29.88 in1011.9 mb - 0.00 in0.0 mm 0.00 in0.0 mm
01:10 PM 92.2°F33.4°C 70.3°F21.3°C 49% 3.3 mph S5.3 kmh S 11.0 mph17.7 kmh 29.89 in1012.2 mb - 0.00 in0.0 mm 0.00 in0.0 mm
01:00 PM 91.4°F33.0°C 68.9°F20.5°C 48% 4.5 mph S7.2 kmh S 11.0 mph17.7 kmh 29.89 in1012.2 mb - 0.00 in0.0 mm 0.00 in0.0 mm
12:50 PM 91.6°F33.1°C 68.5°F20.3°C 47% 7.4 mph S11.9 kmh S 14.0 mph22.5 kmh 29.90 in1012.5 mb - 0.00 in0.0 mm 0.00 in0.0 mm
12:40 PM 91.4°F33.0°C 68.3°F20.2°C 47% 6.7 mph SSW10.8 kmh SSW 10.0 mph16.1 kmh 29.90 in1012.5 mb - 0.00 in0.0 mm 0.00 in0.0 mm
12:30 PM 91.6°F33.1°C 67.3°F19.6°C 45% 8.1 mph S13.0 kmh S 16.0 mph25.7 kmh 29.91 in1012.9 mb - 0.00 in0.0 mm 0.00 in0.0 mm
12:20 PM 91.2°F32.9°C 68.8°F20.4°C 48% 5.7 mph S9.2 kmh S 9.0 mph14.5 kmh 29.91 in1012.9 mb - 0.00 in0.0 mm 0.00 in0.0 mm
12:10 PM 90.1°F32.3°C 67.2°F19.6°C 47% 8.5 mph S13.7 kmh S 11.0 mph17.7 kmh 29.91 in1012.9 mb - 0.00 in0.0 mm 0.00 in0.0 mm
12:00 PM 90.8°F32.7°C 66.5°F19.2°C 45% 4.9 mph SSE7.9 kmh SSE 10.0 mph16.1 kmh 29.92 in1013.2 mb - 0.00 in0.0 mm 0.00 in0.0 mm
11:50 AM 90.6°F32.6°C 69.4°F20.8°C 50% 8.6 mph SSE13.8 kmh SSE 13.0 mph20.9 kmh 29.91 in1012.9 mb - 0.00 in0.0 mm 0.00 in0.0 mm
11:40 AM 90.5°F32.5°C 70.4°F21.3°C 52% 3.0 mph S4.8 kmh S 6.0 mph9.7 kmh 29.91 in1012.9 mb - 0.00 in0.0 mm 0.00 in0.0 mm
11:30 AM 89.9°F32.2°C 71.1°F21.7°C 54% 2.7 mph SSW4.3 kmh SSW 8.0 mph12.9 kmh 29.92 in1013.2 mb - 0.00 in0.0 mm 0.00 in0.0 mm
11:20 AM 89.6°F32.0°C 71.3°F21.8°C 55% 4.1 mph SSE6.6 kmh SSE 9.0 mph14.5 kmh 29.92 in1013.2 mb - 0.00 in0.0 mm 0.00 in0.0 mm
11:10 AM 89.0°F31.7°C 71.8°F22.1°C 57% 7.9 mph S12.7 kmh S 11.0 mph17.7 kmh 29.92 in1013.2 mb - 0.00 in0.0 mm 0.00 in0.0 mm
11:00 AM 88.6°F31.4°C 71.4°F21.9°C 57% 5.0 mph S8.0 kmh S 8.0 mph12.9 kmh 29.92 in1013.2 mb - 0.00 in0.0 mm 0.00 in0.0 mm
10:50 AM 87.8°F31.0°C 71.7°F22.1°C 59% 3.2 mph S5.1 kmh S 9.0 mph14.5 kmh 29.91 in1012.9 mb - 0.00 in0.0 mm 0.00 in0.0 mm
10:40 AM 87.1°F30.6°C 70.5°F21.4°C 58% 0.8 mph SW1.3 kmh SW 2.0 mph3.2 kmh 29.92 in1013.2 mb - 0.00 in0.0 mm 0.00 in0.0 mm
10:30 AM 86.3°F30.2°C 70.8°F21.6°C 60% 2.4 mph SE3.9 kmh SE 7.0 mph11.3 kmh 29.91 in1012.9 mb - 0.00 in0.0 mm 0.00 in0.0 mm
10:20 AM 85.4°F29.7°C 70.9°F21.6°C 62% 3.6 mph S5.8 kmh S 11.0 mph17.7 kmh 29.91 in1012.9 mb - 0.00 in0.0 mm 0.00 in0.0 mm
10:10 AM 84.9°F29.4°C 72.7°F22.6°C 67% 2.7 mph S4.3 kmh S 6.0 mph9.7 kmh 29.91 in1012.9 mb - 0.00 in0.0 mm 0.00 in0.0 mm
10:00 AM 83.7°F28.7°C 71.2°F21.8°C 66% 4.8 mph S7.7 kmh S 9.0 mph14.5 kmh 29.91 in1012.9 mb - 0.00 in0.0 mm 0.00 in0.0 mm
09:50 AM 83.2°F28.4°C 71.1°F21.7°C 67% 5.4 mph S8.7 kmh S 7.0 mph11.3 kmh 29.91 in1012.9 mb - 0.00 in0.0 mm 0.00 in0.0 mm
09:40 AM 82.6°F28.1°C 71.4°F21.9°C 69% 4.3 mph S6.9 kmh S 8.0 mph12.9 kmh 29.91 in1012.9 mb - 0.00 in0.0 mm 0.00 in0.0 mm
09:30 AM 82.0°F27.8°C 71.7°F22.1°C 71% 4.8 mph S7.7 kmh S 7.0 mph11.3 kmh 29.91 in1012.9 mb - 0.00 in0.0 mm 0.00 in0.0 mm
09:20 AM 81.0°F27.2°C 71.1°F21.7°C 72% 4.2 mph S6.8 kmh S 6.0 mph9.7 kmh 29.92 in1013.2 mb - 0.00 in0.0 mm 0.00 in0.0 mm
09:10 AM 80.7°F27.1°C 71.3°F21.8°C 73% 5.4 mph SSW8.7 kmh SSW 8.0 mph12.9 kmh 29.92 in1013.2 mb - 0.00 in0.0 mm 0.00 in0.0 mm
09:00 AM 80.0°F26.7°C 71.3°F21.8°C 75% 4.1 mph SSW6.6 kmh SSW 6.0 mph9.7 kmh 29.91 in1012.9 mb - 0.00 in0.0 mm 0.00 in0.0 mm
08:50 AM 79.3°F26.3°C 71.0°F21.7°C 76% 2.6 mph SW4.2 kmh SW 6.0 mph9.7 kmh 29.91 in1012.9 mb - 0.00 in0.0 mm 0.00 in0.0 mm
08:40 AM 78.6°F25.9°C 70.8°F21.6°C 77% 1.8 mph S2.9 kmh S 5.0 mph8.0 kmh 29.91 in1012.9 mb - 0.00 in0.0 mm 0.00 in0.0 mm
08:30 AM 78.1°F25.6°C 70.6°F21.4°C 78% 3.7 mph S6.0 kmh S 7.0 mph11.3 kmh 29.91 in1012.9 mb - 0.00 in0.0 mm 0.00 in0.0 mm
08:20 AM 77.1°F25.1°C 70.1°F21.2°C 79% 5.3 mph S8.5 kmh S 8.0 mph12.9 kmh 29.91 in1012.9 mb - 0.00 in0.0 mm 0.00 in0.0 mm
08:10 AM 75.6°F24.2°C 69.8°F21.0°C 82% 2.8 mph S4.5 kmh S 4.0 mph6.4 kmh 29.91 in1012.9 mb - 0.00 in0.0 mm 0.00 in0.0 mm
08:00 AM 74.7°F23.7°C 69.2°F20.7°C 83% 3.6 mph SSW5.8 kmh SSW 4.0 mph6.4 kmh 29.91 in1012.9 mb - 0.00 in0.0 mm 0.00 in0.0 mm
07:50 AM 74.0°F23.3°C 68.9°F20.5°C 84% 3.1 mph SSW5.0 kmh SSW 3.0 mph4.8 kmh 29.91 in1012.9 mb - 0.00 in0.0 mm 0.00 in0.0 mm
07:40 AM 73.6°F23.1°C 68.5°F20.3°C 84% 2.2 mph SSW3.5 kmh SSW 3.0 mph4.8 kmh 29.90 in1012.5 mb - 0.00 in0.0 mm 0.00 in0.0 mm
07:30 AM 73.3°F22.9°C 68.2°F20.1°C 84% 0.8 mph SSW1.3 kmh SSW 2.0 mph3.2 kmh 29.90 in1012.5 mb - 0.00 in0.0 mm 0.00 in0.0 mm
07:20 AM 73.3°F22.9°C 68.1°F20.1°C 84% 2.3 mph SSW3.7 kmh SSW 3.0 mph4.8 kmh 29.89 in1012.2 mb - 0.00 in0.0 mm 0.00 in0.0 mm
07:10 AM 73.1°F22.8°C 68.0°F20.0°C 84% 3.1 mph SSW5.0 kmh SSW 5.0 mph8.0 kmh 29.89 in1012.2 mb - 0.00 in0.0 mm 0.00 in0.0 mm
07:00 AM 73.0°F22.8°C 67.9°F19.9°C 84% 2.2 mph SW3.5 kmh SW 3.0 mph4.8 kmh 29.89 in1012.2 mb - 0.00 in0.0 mm 0.00 in0.0 mm
06:50 AM 73.0°F22.8°C 67.9°F19.9°C 84% 1.8 mph SW2.9 kmh SW 2.0 mph3.2 kmh 29.89 in1012.2 mb - 0.00 in0.0 mm 0.00 in0.0 mm
06:40 AM 73.1°F22.8°C 68.0°F20.0°C 84% 2.6 mph SW4.2 kmh SW 4.0 mph6.4 kmh 29.89 in1012.2 mb - 0.00 in0.0 mm 0.00 in0.0 mm
06:30 AM 73.2°F22.9°C 67.7°F19.8°C 83% 1.3 mph SW2.1 kmh SW 2.0 mph3.2 kmh 29.89 in1012.2 mb - 0.00 in0.0 mm 0.00 in0.0 mm
06:20 AM 73.3°F22.9°C 67.9°F19.9°C 83% 1.3 mph SW2.1 kmh SW 2.0 mph3.2 kmh 29.89 in1012.2 mb - 0.00 in0.0 mm 0.00 in0.0 mm
06:10 AM 73.5°F23.1°C 67.7°F19.8°C 82% 2.2 mph SW3.5 kmh SW 3.0 mph4.8 kmh 29.89 in1012.2 mb - 0.00 in0.0 mm 0.00 in0.0 mm
06:00 AM 73.8°F23.2°C 68.0°F20.0°C 82% 2.1 mph SW3.4 kmh SW 4.0 mph6.4 kmh 29.89 in1012.2 mb - 0.00 in0.0 mm 0.00 in0.0 mm
05:50 AM 74.1°F23.4°C 67.9°F19.9°C 81% 0.7 mph SW1.1 kmh SW 2.0 mph3.2 kmh 29.88 in1011.9 mb - 0.00 in0.0 mm 0.00 in0.0 mm
05:40 AM 74.3°F23.5°C 68.1°F20.1°C 81% 2.2 mph SW3.5 kmh SW 3.0 mph4.8 kmh 29.88 in1011.9 mb - 0.00 in0.0 mm 0.00 in0.0 mm
05:30 AM 74.6°F23.7°C 68.0°F20.0°C 80% 0.7 mph SW1.1 kmh SW 2.0 mph3.2 kmh 29.88 in1011.9 mb - 0.00 in0.0 mm 0.00 in0.0 mm
05:20 AM 74.8°F23.8°C 67.8°F19.9°C 79% 2.4 mph SW3.9 kmh SW 4.0 mph6.4 kmh 29.88 in1011.9 mb - 0.00 in0.0 mm 0.00 in0.0 mm
05:10 AM 75.1°F23.9°C 67.8°F19.9°C 78% 2.1 mph SW3.4 kmh SW 4.0 mph6.4 kmh 29.88 in1011.9 mb - 0.00 in0.0 mm 0.00 in0.0 mm
05:00 AM 75.3°F24.1°C 67.9°F19.9°C 78% 2.4 mph SW3.9 kmh SW 4.0 mph6.4 kmh 29.88 in1011.9 mb - 0.00 in0.0 mm 0.00 in0.0 mm
04:50 AM 75.2°F24.0°C 67.9°F19.9°C 78% 3.4 mph SW5.5 kmh SW 7.0 mph11.3 kmh 29.88 in1011.9 mb - 0.00 in0.0 mm 0.00 in0.0 mm
04:40 AM 75.2°F24.0°C 67.9°F19.9°C 78% 2.6 mph SW4.2 kmh SW 5.0 mph8.0 kmh 29.88 in1011.9 mb - 0.00 in0.0 mm 0.00 in0.0 mm
04:30 AM 75.4°F24.1°C 68.1°F20.1°C 78% 1.8 mph SW2.9 kmh SW 3.0 mph4.8 kmh 29.88 in1011.9 mb - 0.00 in0.0 mm 0.00 in0.0 mm
04:20 AM 75.6°F24.2°C 67.9°F19.9°C 77% 0.8 mph SW1.3 kmh SW 2.0 mph3.2 kmh 29.88 in1011.9 mb - 0.00 in0.0 mm 0.00 in0.0 mm
04:10 AM 75.8°F24.3°C 68.1°F20.1°C 77% 1.0 mph SW1.6 kmh SW 3.0 mph4.8 kmh 29.88 in1011.9 mb - 0.00 in0.0 mm 0.00 in0.0 mm
04:00 AM 76.1°F24.5°C 68.0°F20.0°C 76% 2.3 mph SW3.7 kmh SW 3.0 mph4.8 kmh 29.88 in1011.9 mb - 0.00 in0.0 mm 0.00 in0.0 mm
03:50 AM 76.3°F24.6°C 68.2°F20.1°C 76% 1.6 mph SW2.6 kmh SW 3.0 mph4.8 kmh 29.88 in1011.9 mb - 0.00 in0.0 mm 0.00 in0.0 mm
03:40 AM 76.6°F24.8°C 68.1°F20.1°C 75% 1.4 mph SW2.3 kmh SW 3.0 mph4.8 kmh 29.88 in1011.9 mb - 0.00 in0.0 mm 0.00 in0.0 mm
03:30 AM 76.9°F24.9°C 68.0°F20.0°C 74% 0.6 mph SW1.0 kmh SW 3.0 mph4.8 kmh 29.87 in1011.5 mb - 0.00 in0.0 mm 0.00 in0.0 mm
03:20 AM 77.1°F25.1°C 68.2°F20.1°C 74% 2.4 mph SW3.9 kmh SW 5.0 mph8.0 kmh 29.87 in1011.5 mb - 0.00 in0.0 mm 0.00 in0.0 mm
03:10 AM 77.3°F25.2°C 68.4°F20.2°C 74% 3.9 mph SW6.3 kmh SW 6.0 mph9.7 kmh 29.87 in1011.5 mb - 0.00 in0.0 mm 0.00 in0.0 mm
03:00 AM 77.3°F25.2°C 68.4°F20.2°C 74% 3.4 mph SW5.5 kmh SW 4.0 mph6.4 kmh 29.87 in1011.5 mb - 0.00 in0.0 mm 0.00 in0.0 mm
02:50 AM 77.2°F25.1°C 68.3°F20.2°C 74% 3.9 mph SSW6.3 kmh SSW 5.0 mph8.0 kmh 29.87 in1011.5 mb - 0.00 in0.0 mm 0.00 in0.0 mm
02:40 AM 77.3°F25.2°C 68.4°F20.2°C 74% 2.5 mph SSW4.0 kmh SSW 6.0 mph9.7 kmh 29.87 in1011.5 mb - 0.00 in0.0 mm 0.00 in0.0 mm
02:30 AM 77.4°F25.2°C 68.5°F20.3°C 74% 3.1 mph SSW5.0 kmh SSW 6.0 mph9.7 kmh 29.87 in1011.5 mb - 0.00 in0.0 mm 0.00 in0.0 mm
02:20 AM 77.7°F25.4°C 68.0°F20.0°C 72% 3.6 mph S5.8 kmh S 6.0 mph9.7 kmh 29.87 in1011.5 mb - 0.00 in0.0 mm 0.00 in0.0 mm
02:10 AM 78.0°F25.6°C 68.2°F20.1°C 72% 1.3 mph S2.1 kmh S 2.0 mph3.2 kmh 29.87 in1011.5 mb - 0.00 in0.0 mm 0.00 in0.0 mm
02:00 AM 78.2°F25.7°C 68.0°F20.0°C 71% 2.3 mph S3.7 kmh S 4.0 mph6.4 kmh 29.87 in1011.5 mb - 0.00 in0.0 mm 0.00 in0.0 mm
01:50 AM 78.4°F25.8°C 68.2°F20.1°C 71% 2.0 mph S3.2 kmh S 4.0 mph6.4 kmh 29.87 in1011.5 mb - 0.00 in0.0 mm 0.00 in0.0 mm
01:40 AM 78.5°F25.8°C 67.9°F19.9°C 70% 2.0 mph S3.2 kmh S 4.0 mph6.4 kmh 29.87 in1011.5 mb - 0.00 in0.0 mm 0.00 in0.0 mm
01:30 AM 78.6°F25.9°C 68.0°F20.0°C 70% 2.3 mph S3.7 kmh S 4.0 mph6.4 kmh 29.87 in1011.5 mb - 0.00 in0.0 mm 0.00 in0.0 mm
01:20 AM 78.8°F26.0°C 67.8°F19.9°C 69% 1.9 mph S3.1 kmh S 4.0 mph6.4 kmh 29.88 in1011.9 mb - 0.00 in0.0 mm 0.00 in0.0 mm
01:10 AM 79.0°F26.1°C 67.5°F19.7°C 68% 1.4 mph S2.3 kmh S 4.0 mph6.4 kmh 29.88 in1011.9 mb - 0.00 in0.0 mm 0.00 in0.0 mm
01:00 AM 79.2°F26.2°C 67.7°F19.8°C 68% 1.5 mph S2.4 kmh S 4.0 mph6.4 kmh 29.88 in1011.9 mb - 0.00 in0.0 mm 0.00 in0.0 mm
12:50 AM 79.4°F26.3°C 67.5°F19.7°C 67% 2.0 mph S3.2 kmh S 5.0 mph8.0 kmh 29.88 in1011.9 mb - 0.00 in0.0 mm 0.00 in0.0 mm
12:40 AM 79.5°F26.4°C 67.6°F19.8°C 67% 1.8 mph S2.9 kmh S 4.0 mph6.4 kmh 29.88 in1011.9 mb - 0.00 in0.0 mm 0.00 in0.0 mm
12:30 AM 79.7°F26.5°C 67.4°F19.7°C 66% 2.3 mph S3.7 kmh S 4.0 mph6.4 kmh 29.88 in1011.9 mb - 0.00 in0.0 mm 0.00 in0.0 mm
12:20 AM 80.0°F26.7°C 67.6°F19.8°C 66% 3.2 mph S5.1 kmh S 5.0 mph8.0 kmh 29.89 in1012.2 mb - 0.00 in0.0 mm 0.00 in0.0 mm
12:10 AM 80.3°F26.8°C 67.5°F19.7°C 65% 1.7 mph S2.7 kmh S 5.0 mph8.0 kmh 29.89 in1012.2 mb - 0.00 in0.0 mm 0.00 in0.0 mm
12:00 AM 80.5°F26.9°C 67.2°F19.6°C 64% 2.7 mph S4.3 kmh S 6.0 mph9.7 kmh 29.89 in1012.2 mb - 0.00 in0.0 mm 0.00 in0.0 mm